createdAt,value
2022-11-17T00:00:42.895Z,3.80
2022-11-17T00:03:15.337Z,2.58
2022-11-17T00:05:43.484Z,3.28
2022-11-17T00:08:10.745Z,3.40
2022-11-17T00:10:37.983Z,3.45
2022-11-17T00:13:23.570Z,2.60
2022-11-17T00:15:50.919Z,2.60
2022-11-17T00:18:36.931Z,2.97
2022-11-17T00:21:19.790Z,2.50
2022-11-17T00:23:47.655Z,3.13
2022-11-17T00:26:20.514Z,2.25
2022-11-17T00:28:51.171Z,4.38
2022-11-17T00:31:36.992Z,3.47
2022-11-17T00:34:07.187Z,3.15
2022-11-17T00:36:43.493Z,3.28
2022-11-17T00:39:12.193Z,2.80
2022-11-17T00:41:39.380Z,2.40
2022-11-17T00:44:07.330Z,3.53
2022-11-17T00:46:36.264Z,2.25
2022-11-17T00:49:04.818Z,1.65
2022-11-17T00:51:32.622Z,2.55
2022-11-17T00:54:00.429Z,2.63
2022-11-17T00:56:28.017Z,1.88
2022-11-17T00:58:55.510Z,1.98
2022-11-17T01:01:23.492Z,3.10
2022-11-17T01:03:50.955Z,3.55
2022-11-17T01:06:20.149Z,2.53
2022-11-17T01:08:47.786Z,1.83
2022-11-17T01:11:17.537Z,2.10
2022-11-17T01:13:47.151Z,1.92
2022-11-17T01:16:17.318Z,1.90
2022-11-17T01:18:46.436Z,1.85
2022-11-17T01:21:32.247Z,2.28
2022-11-17T01:24:01.459Z,2.70
2022-11-17T01:26:36.459Z,1.27
2022-11-17T01:29:05.023Z,2.10
2022-11-17T01:31:34.855Z,2.88
2022-11-17T01:34:02.128Z,1.98
2022-11-17T01:36:52.114Z,1.05
2022-11-17T01:39:19.950Z,1.75
2022-11-17T01:41:47.198Z,1.38
2022-11-17T01:44:36.406Z,1.50
2022-11-17T01:47:17.686Z,1.80
2022-11-17T01:49:46.084Z,1.65
2022-11-17T01:52:14.167Z,1.90
2022-11-17T01:54:42.606Z,1.20
2022-11-17T01:57:21.192Z,0.82
2022-11-17T01:59:57.071Z,1.13
2022-11-17T02:02:24.852Z,1.10
2022-11-17T02:04:58.543Z,1.17
2022-11-17T02:07:29.629Z,1.83
2022-11-17T02:09:57.235Z,0.90
2022-11-17T02:12:26.716Z,1.77
2022-11-17T02:14:55.058Z,1.40
2022-11-17T02:17:24.335Z,1.77
2022-11-17T02:20:09.068Z,1.60
2022-11-17T02:22:42.260Z,1.08
2022-11-17T02:25:31.002Z,2.38
2022-11-17T02:28:16.414Z,2.28
2022-11-17T02:30:54.188Z,1.08
2022-11-17T02:33:46.480Z,0.90
2022-11-17T02:36:35.464Z,1.00
2022-11-17T02:39:09.883Z,1.13
2022-11-17T02:41:56.772Z,1.85
2022-11-17T02:44:39.775Z,1.70
2022-11-17T02:47:28.101Z,1.48
2022-11-17T02:50:18.739Z,1.52
2022-11-17T02:52:46.142Z,1.20
2022-11-17T02:55:13.799Z,1.55
2022-11-17T02:57:42.033Z,1.20
2022-11-17T03:00:20.007Z,1.23
2022-11-17T03:02:47.172Z,1.80
2022-11-17T03:05:36.295Z,1.00
2022-11-17T03:08:12.473Z,1.67
2022-11-17T03:11:02.926Z,1.45
2022-11-17T03:14:04.703Z,1.58
2022-11-17T03:16:58.521Z,1.50
2022-11-17T03:20:08.423Z,0.98
2022-11-17T03:22:51.276Z,2.15
2022-11-17T03:25:23.156Z,2.15
2022-11-17T03:27:56.836Z,0.88
2022-11-17T03:30:25.604Z,1.63
2022-11-17T03:32:58.644Z,1.75
2022-11-17T03:35:29.253Z,1.67
2022-11-17T03:38:02.187Z,2.67
2022-11-17T03:40:32.691Z,0.98
2022-11-17T03:43:04.951Z,2.42
2022-11-17T03:45:43.222Z,1.90
2022-11-17T03:48:19.668Z,1.92
2022-11-17T03:51:06.415Z,2.15
2022-11-17T03:53:35.706Z,1.38
2022-11-17T03:56:33.792Z,1.80
2022-11-17T03:59:07.997Z,1.50
2022-11-17T04:01:36.832Z,2.15
2022-11-17T04:04:04.197Z,2.03
2022-11-17T04:06:31.595Z,1.25
2022-11-17T04:08:58.772Z,1.30
2022-11-17T04:11:44.481Z,2.00
2022-11-17T04:14:30.304Z,2.95
2022-11-17T04:16:57.561Z,2.67
2022-11-17T04:19:24.784Z,2.13
2022-11-17T04:21:52.023Z,1.38
2022-11-17T04:24:19.310Z,1.23
2022-11-17T04:27:04.862Z,0.90
2022-11-17T04:29:34.097Z,1.83
2022-11-17T04:32:01.564Z,2.17
2022-11-17T04:34:28.796Z,2.78
2022-11-17T04:36:56.117Z,1.45
2022-11-17T04:39:23.331Z,1.23
2022-11-17T04:42:03.341Z,2.10
2022-11-17T04:44:32.193Z,1.85
2022-11-17T04:47:01.998Z,1.55
2022-11-17T04:49:29.350Z,2.47
2022-11-17T04:51:56.669Z,3.03
2022-11-17T04:54:25.246Z,1.40
2022-11-17T04:56:53.882Z,1.60
2022-11-17T04:59:21.694Z,4.28
2022-11-17T05:01:49.011Z,1.15
2022-11-17T05:04:37.964Z,1.05
2022-11-17T05:07:05.502Z,1.05
2022-11-17T05:09:33.183Z,2.28
2022-11-17T05:12:19.095Z,2.00
2022-11-17T05:14:49.008Z,1.00
2022-11-17T05:17:16.601Z,0.75
2022-11-17T05:19:45.776Z,0.82
2022-11-17T05:22:35.202Z,1.63
2022-11-17T05:25:02.437Z,1.10
2022-11-17T05:27:29.716Z,1.27
2022-11-17T05:29:56.951Z,1.08
2022-11-17T05:32:24.157Z,1.10
2022-11-17T05:34:51.389Z,1.63
2022-11-17T05:37:18.751Z,2.50
2022-11-17T05:39:45.988Z,1.35
2022-11-17T05:42:13.329Z,1.95
2022-11-17T05:44:40.539Z,2.83
2022-11-17T05:47:07.858Z,2.25
2022-11-17T05:49:35.079Z,1.63
2022-11-17T05:52:02.274Z,2.03
2022-11-17T05:54:29.560Z,3.40
2022-11-17T05:57:03.549Z,1.35
2022-11-17T05:59:59.536Z,1.13
2022-11-17T06:02:37.820Z,1.77
2022-11-17T06:05:05.735Z,1.02
2022-11-17T06:07:34.525Z,1.13
2022-11-17T06:10:01.736Z,1.58
2022-11-17T06:12:28.916Z,0.93
2022-11-17T06:14:56.225Z,1.05
2022-11-17T06:17:44.223Z,1.08
2022-11-17T06:20:19.922Z,4.35
2022-11-17T06:22:48.778Z,0.60
2022-11-17T06:25:18.110Z,1.08
2022-11-17T06:27:46.396Z,1.50
2022-11-17T06:30:13.773Z,1.27
2022-11-17T06:32:43.821Z,1.58
2022-11-17T06:35:14.511Z,0.68
2022-11-17T06:37:41.842Z,1.50
2022-11-17T06:40:13.451Z,1.20
2022-11-17T06:42:59.695Z,1.42
2022-11-17T06:45:27.116Z,1.45
2022-11-17T06:47:54.711Z,2.03
2022-11-17T06:50:21.963Z,0.73
2022-11-17T06:52:49.235Z,1.15
2022-11-17T06:55:16.681Z,0.73
2022-11-17T06:57:48.942Z,2.20
2022-11-17T07:00:20.091Z,1.35
2022-11-17T07:02:47.564Z,2.42
2022-11-17T07:05:14.905Z,3.15
2022-11-17T07:07:42.177Z,3.20
2022-11-17T07:10:09.785Z,7.22
2022-11-17T07:12:37.024Z,5.43
2022-11-17T07:15:04.590Z,4.35
2022-11-17T07:17:32.906Z,4.57
2022-11-17T07:20:00.204Z,4.30
2022-11-17T07:22:27.533Z,6.13
2022-11-17T07:24:54.835Z,4.32
2022-11-17T07:27:22.099Z,4.70
2022-11-17T07:29:49.446Z,5.22
2022-11-17T07:32:16.794Z,7.10
2022-11-17T07:34:44.141Z,2.92
2022-11-17T07:37:11.490Z,8.27
2022-11-17T07:39:38.903Z,7.65
2022-11-17T07:42:06.328Z,4.38
2022-11-17T07:44:34.394Z,5.65
2022-11-17T07:47:02.321Z,4.95
2022-11-17T07:49:29.624Z,6.07
2022-11-17T07:51:56.980Z,6.35
2022-11-17T07:54:24.402Z,6.88
2022-11-17T07:56:51.651Z,7.50
2022-11-17T07:59:21.487Z,3.78
2022-11-17T08:01:49.040Z,5.25
2022-11-17T08:04:16.342Z,5.47
2022-11-17T08:06:43.628Z,5.47
2022-11-17T08:09:13.423Z,4.50
2022-11-17T08:11:40.764Z,3.28
2022-11-17T08:14:08.200Z,4.10
2022-11-17T08:16:35.563Z,3.00
2022-11-17T08:19:06.095Z,6.22
2022-11-17T08:21:36.160Z,4.05
2022-11-17T08:24:03.483Z,3.78
2022-11-17T08:26:30.797Z,3.85
2022-11-17T08:28:59.135Z,2.53
2022-11-17T08:31:26.546Z,3.83
2022-11-17T08:33:53.877Z,2.38
2022-11-17T08:36:21.205Z,3.05
2022-11-17T08:38:48.470Z,2.13
2022-11-17T08:41:15.830Z,3.40
2022-11-17T08:43:43.114Z,2.63
2022-11-17T08:46:13.809Z,2.28
2022-11-17T08:48:41.346Z,2.25
2022-11-17T08:51:11.262Z,3.42
2022-11-17T08:53:38.514Z,4.82
2022-11-17T08:56:12.995Z,2.38
2022-11-17T08:58:44.943Z,4.25
2022-11-17T09:01:15.863Z,2.42
2022-11-17T09:03:45.611Z,4.43
2022-11-17T09:06:15.152Z,2.67
2022-11-17T09:08:46.088Z,3.03
2022-11-17T09:11:14.980Z,3.53
2022-11-17T09:13:42.429Z,1.92
2022-11-17T09:16:11.588Z,4.60
2022-11-17T09:18:40.835Z,3.70
2022-11-17T09:21:11.363Z,1.92
2022-11-17T09:23:39.264Z,4.15
2022-11-17T09:26:09.821Z,3.20
2022-11-17T09:28:37.677Z,2.15
2022-11-17T09:31:20.066Z,2.08
2022-11-17T09:33:47.684Z,3.85
2022-11-17T09:36:16.327Z,3.08
2022-11-17T09:38:43.981Z,2.45
2022-11-17T09:41:22.651Z,2.05
2022-11-17T09:44:15.658Z,4.20
2022-11-17T09:46:55.525Z,2.50
2022-11-17T09:49:40.912Z,4.40
2022-11-17T09:52:22.965Z,3.33
2022-11-17T09:55:15.845Z,2.08
2022-11-17T09:57:48.339Z,2.75
2022-11-17T10:00:21.904Z,2.45
2022-11-17T10:02:50.705Z,3.58
2022-11-17T10:05:30.580Z,1.95
2022-11-17T10:08:11.837Z,4.00
2022-11-17T10:10:47.834Z,1.83
2022-11-17T10:13:32.530Z,2.80
2022-11-17T10:16:11.566Z,2.17
2022-11-17T10:18:39.787Z,2.92
2022-11-17T10:21:09.247Z,3.78
2022-11-17T10:23:53.479Z,2.05
2022-11-17T10:26:20.753Z,3.20
2022-11-17T10:28:48.510Z,4.55
2022-11-17T10:31:18.418Z,2.45
2022-11-17T10:33:49.074Z,3.17
2022-11-17T10:36:26.694Z,2.55
2022-11-17T10:38:56.335Z,4.00
2022-11-17T10:41:35.712Z,3.25
2022-11-17T10:44:27.473Z,3.17
2022-11-17T10:47:02.079Z,3.22
2022-11-17T10:49:39.778Z,1.63
2022-11-17T10:52:16.697Z,2.80
2022-11-17T10:54:44.661Z,2.22
2022-11-17T10:57:23.607Z,2.25
2022-11-17T10:59:56.702Z,2.55
2022-11-17T11:02:35.557Z,2.50
2022-11-17T11:05:19.924Z,3.58
2022-11-17T11:07:47.256Z,2.28
2022-11-17T11:10:26.926Z,2.67
2022-11-17T11:13:16.870Z,4.35
2022-11-17T11:15:45.962Z,2.63
2022-11-17T11:18:15.374Z,2.22
2022-11-17T11:21:13.512Z,1.27
2022-11-17T11:24:18.384Z,1.60
2022-11-17T11:26:58.029Z,1.63
2022-11-17T11:29:50.974Z,2.15
2022-11-17T11:32:27.389Z,1.73
2022-11-17T11:35:30.863Z,3.20
2022-11-17T11:38:17.102Z,1.55
2022-11-17T11:40:58.854Z,2.58
2022-11-17T11:43:45.686Z,2.53
2022-11-17T11:46:23.572Z,2.38
2022-11-17T11:48:54.116Z,2.17
2022-11-17T11:51:29.448Z,2.08
2022-11-17T11:54:13.344Z,2.17
2022-11-17T11:56:44.254Z,2.67
2022-11-17T11:59:22.200Z,2.88
2022-11-17T12:02:11.433Z,2.25
2022-11-17T12:04:49.434Z,1.83
2022-11-17T12:07:47.654Z,3.13
2022-11-17T12:10:39.281Z,2.42
2022-11-17T12:13:11.465Z,1.98
2022-11-17T12:15:38.924Z,1.42
2022-11-17T12:18:26.417Z,2.17
2022-11-17T12:21:04.334Z,2.05
2022-11-17T12:23:48.983Z,3.17
2022-11-17T12:26:42.396Z,1.60
2022-11-17T12:29:22.095Z,3.35
2022-11-17T12:32:00.568Z,2.60
2022-11-17T12:34:37.226Z,3.33
2022-11-17T12:37:18.739Z,2.17
2022-11-17T12:40:06.659Z,2.13
2022-11-17T12:42:35.270Z,2.17
2022-11-17T12:45:08.317Z,2.13
2022-11-17T12:47:59.523Z,1.08
2022-11-17T12:51:18.898Z,2.00
2022-11-17T12:54:00.532Z,1.70
2022-11-17T12:56:27.784Z,1.08
2022-11-17T12:58:59.982Z,1.15
2022-11-17T13:01:59.386Z,1.05
2022-11-17T13:04:49.355Z,2.13
2022-11-17T13:07:28.210Z,2.95
2022-11-17T13:09:58.011Z,1.88
2022-11-17T13:12:27.953Z,1.58
2022-11-17T13:15:00.263Z,4.82
2022-11-17T13:17:31.779Z,3.00
2022-11-17T13:20:29.026Z,3.45
2022-11-17T13:23:06.540Z,1.25
2022-11-17T13:25:35.137Z,3.38
2022-11-17T13:28:05.269Z,2.60
2022-11-17T13:30:33.242Z,3.22
2022-11-17T13:33:03.028Z,2.95
2022-11-17T13:35:31.375Z,1.63
2022-11-17T13:38:24.133Z,1.40
2022-11-17T13:40:53.572Z,2.22
2022-11-17T13:43:23.472Z,2.08
2022-11-17T13:45:53.004Z,1.83
2022-11-17T13:48:36.840Z,2.20
2022-11-17T13:51:30.260Z,1.85
2022-11-17T13:54:06.785Z,2.75
2022-11-17T13:56:34.051Z,3.08
2022-11-17T13:59:21.276Z,1.65
2022-11-17T14:01:48.933Z,2.67
2022-11-17T14:04:22.714Z,2.40
2022-11-17T14:07:03.495Z,3.17
2022-11-17T14:09:34.471Z,3.42
2022-11-17T14:12:09.292Z,3.33
2022-11-17T14:14:39.462Z,1.75
2022-11-17T14:17:19.369Z,4.07
2022-11-17T14:19:47.808Z,2.80
2022-11-17T14:22:22.307Z,2.67
2022-11-17T14:24:51.394Z,2.72
2022-11-17T14:27:27.758Z,3.17
2022-11-17T14:29:55.257Z,3.58
2022-11-17T14:32:22.497Z,1.77
2022-11-17T14:34:49.801Z,2.55
2022-11-17T14:37:17.323Z,1.98
2022-11-17T14:39:44.569Z,2.75
2022-11-17T14:42:11.841Z,1.90
2022-11-17T14:44:39.165Z,2.97
2022-11-17T14:47:06.511Z,2.17
2022-11-17T14:49:33.774Z,2.70
2022-11-17T14:52:02.431Z,2.53
2022-11-17T14:54:29.718Z,2.33
2022-11-17T14:56:56.981Z,2.05
2022-11-17T14:59:24.255Z,1.75
2022-11-17T15:01:51.470Z,2.92
2022-11-17T15:04:48.845Z,2.10
2022-11-17T15:07:06.390Z,2.58
2022-11-17T15:09:34.059Z,4.13
2022-11-17T15:12:01.295Z,3.58
2022-11-17T15:14:28.637Z,2.38
2022-11-17T15:16:55.964Z,3.83
2022-11-17T15:19:23.194Z,3.60
2022-11-17T15:21:50.448Z,2.53
2022-11-17T15:24:18.170Z,3.33
2022-11-17T15:26:45.523Z,2.33
2022-11-17T15:29:17.270Z,2.65
2022-11-17T15:31:44.920Z,2.53
2022-11-17T15:34:17.115Z,2.53
2022-11-17T15:36:47.758Z,1.42
2022-11-17T15:39:15.325Z,2.28
2022-11-17T15:41:43.265Z,1.45
2022-11-17T15:44:10.671Z,2.85
2022-11-17T15:46:39.646Z,2.28
2022-11-17T15:49:10.526Z,3.22
2022-11-17T15:51:37.854Z,2.75
2022-11-17T15:54:05.281Z,2.70
2022-11-17T15:56:38.869Z,2.40
2022-11-17T15:59:06.961Z,2.10
2022-11-17T16:01:36.014Z,1.70
2022-11-17T16:04:08.832Z,1.45
2022-11-17T16:06:38.504Z,3.42
2022-11-17T16:09:06.792Z,2.03
2022-11-17T16:11:34.582Z,2.58
2022-11-17T16:14:02.328Z,4.40
2022-11-17T16:16:35.837Z,2.15
2022-11-17T16:19:03.466Z,3.13
2022-11-17T16:21:30.894Z,4.22
2022-11-17T16:24:00.740Z,1.23
2022-11-17T16:26:29.086Z,1.90
2022-11-17T16:29:00.863Z,2.13
2022-11-17T16:31:31.005Z,3.40
2022-11-17T16:34:04.437Z,1.92
2022-11-17T16:36:36.733Z,2.22
2022-11-17T16:39:06.596Z,2.00
2022-11-17T16:41:36.576Z,2.10
2022-11-17T16:44:11.723Z,4.10
2022-11-17T16:46:41.810Z,2.95
2022-11-17T16:49:12.715Z,3.00
2022-11-17T16:51:40.704Z,2.85
2022-11-17T16:54:12.529Z,2.72
2022-11-17T16:56:40.242Z,3.38
2022-11-17T16:59:07.533Z,2.30
2022-11-17T17:01:35.469Z,1.60
2022-11-17T17:04:08.684Z,3.15
2022-11-17T17:06:38.608Z,3.55
2022-11-17T17:09:08.351Z,2.80
2022-11-17T17:11:36.584Z,2.63
2022-11-17T17:14:06.242Z,1.92
2022-11-17T17:16:35.700Z,3.63
2022-11-17T17:19:06.857Z,3.25
2022-11-17T17:21:34.679Z,1.23
2022-11-17T17:24:02.032Z,3.65
2022-11-17T17:26:31.945Z,1.65
2022-11-17T17:29:01.189Z,4.18
2022-11-17T17:31:37.253Z,1.67
2022-11-17T17:34:06.388Z,2.40
2022-11-17T17:36:35.023Z,2.35
2022-11-17T17:39:03.284Z,3.50
2022-11-17T17:41:33.223Z,2.67
2022-11-17T17:44:04.095Z,2.45
2022-11-17T17:46:34.123Z,4.68
2022-11-17T17:49:02.006Z,3.00
2022-11-17T17:51:30.408Z,1.73
2022-11-17T17:54:01.013Z,3.88
2022-11-17T17:56:30.351Z,3.30
2022-11-17T17:58:58.153Z,2.88
2022-11-17T18:01:37.436Z,3.47
2022-11-17T18:04:05.512Z,4.70
2022-11-17T18:06:37.999Z,4.28
2022-11-17T18:09:06.641Z,4.95
2022-11-17T18:11:35.587Z,6.53
2022-11-17T18:14:03.996Z,6.45
2022-11-17T18:16:33.498Z,4.82
2022-11-17T18:19:03.570Z,4.07
2022-11-17T18:21:31.608Z,4.32
2022-11-17T18:24:01.260Z,8.82
2022-11-17T18:26:31.685Z,5.18
2022-11-17T18:29:19.695Z,9.30
2022-11-17T18:31:49.668Z,10.88
2022-11-17T18:34:23.469Z,9.05
2022-11-17T18:36:52.870Z,7.07
2022-11-17T18:39:21.499Z,7.13
2022-11-17T18:41:49.748Z,6.32
2022-11-17T18:44:21.302Z,6.40
2022-11-17T18:46:49.425Z,5.40
2022-11-17T18:49:17.394Z,4.28
2022-11-17T18:51:46.023Z,9.25
2022-11-17T18:54:14.007Z,8.30
2022-11-17T18:56:42.368Z,8.35
2022-11-17T18:59:13.390Z,6.70
2022-11-17T19:01:43.111Z,4.93
2022-11-17T19:04:13.991Z,8.20
2022-11-17T19:06:42.282Z,8.57
2022-11-17T19:09:10.885Z,8.30
2022-11-17T19:11:38.914Z,10.27
2022-11-17T19:14:06.932Z,9.38
2022-11-17T19:16:44.514Z,6.93
2022-11-17T19:19:13.993Z,7.07
2022-11-17T19:21:42.472Z,13.65
2022-11-17T19:24:09.938Z,6.68
2022-11-17T19:26:37.755Z,6.65
2022-11-17T19:29:14.251Z,10.45
2022-11-17T19:31:43.591Z,15.20
2022-11-17T19:34:11.735Z,10.98
2022-11-17T19:36:39.751Z,8.63
2022-11-17T19:39:07.291Z,8.50
2022-11-17T19:41:36.905Z,8.07
2022-11-17T19:44:06.785Z,6.80
2022-11-17T19:46:36.320Z,8.75
2022-11-17T19:49:06.119Z,13.73
2022-11-17T19:51:37.233Z,9.80
2022-11-17T19:54:07.418Z,8.52
2022-11-17T19:56:35.298Z,9.35
2022-11-17T19:59:03.665Z,6.55
2022-11-17T20:01:32.730Z,7.53
2022-11-17T20:04:01.125Z,9.27
2022-11-17T20:06:34.968Z,6.43
2022-11-17T20:09:06.283Z,8.13
2022-11-17T20:14:21.273Z,5.60
2022-11-17T20:16:49.189Z,6.60
2022-11-17T20:19:17.106Z,6.72
2022-11-17T20:21:46.091Z,5.00
2022-11-17T20:24:13.604Z,7.93
2022-11-17T20:26:43.113Z,6.35
2022-11-17T20:29:10.685Z,9.38
2022-11-17T20:31:38.256Z,5.68
2022-11-17T20:34:06.335Z,6.35
2022-11-17T20:36:35.678Z,4.25
2022-11-17T20:39:06.009Z,4.45
2022-11-17T20:41:33.552Z,4.35
2022-11-17T20:44:03.457Z,10.07
2022-11-17T20:46:32.283Z,5.38
2022-11-17T20:49:00.342Z,6.50
2022-11-17T20:51:27.772Z,3.95
2022-11-17T20:53:55.382Z,5.05
2022-11-17T20:56:23.074Z,3.88
2022-11-17T20:58:50.893Z,4.28
2022-11-17T21:01:20.685Z,6.80
2022-11-17T21:03:49.336Z,5.53
2022-11-17T21:06:17.900Z,5.50
2022-11-17T21:08:46.205Z,5.15
2022-11-17T21:11:36.796Z,3.40
2022-11-17T21:14:05.855Z,6.22
2022-11-17T21:16:34.271Z,4.22
2022-11-17T21:19:01.771Z,5.88
2022-11-17T21:21:29.494Z,4.50
2022-11-17T21:24:18.013Z,6.95
2022-11-17T21:26:45.718Z,3.83
2022-11-17T21:29:13.147Z,5.47
2022-11-17T21:31:40.525Z,3.80
2022-11-17T21:34:13.692Z,5.78
2022-11-17T21:36:40.938Z,3.72
2022-11-17T21:39:08.254Z,3.22
2022-11-17T21:41:35.584Z,5.72
2022-11-17T21:44:04.253Z,5.60
2022-11-17T21:46:34.971Z,4.22
2022-11-17T21:49:02.303Z,4.80
2022-11-17T21:51:37.744Z,4.07
2022-11-17T21:54:07.524Z,3.10
2022-11-17T21:56:36.107Z,4.65
2022-11-17T21:59:06.337Z,5.18
2022-11-17T22:01:34.808Z,5.53
2022-11-17T22:04:02.373Z,3.97
2022-11-17T22:06:30.321Z,4.97
2022-11-17T22:08:58.749Z,5.38
2022-11-17T22:11:37.980Z,4.78
2022-11-17T22:14:12.644Z,6.47
2022-11-17T22:16:42.621Z,4.57
2022-11-17T22:19:10.830Z,5.20
2022-11-17T22:21:39.258Z,4.85
2022-11-17T22:24:09.968Z,2.78
2022-11-17T22:26:38.564Z,2.70
2022-11-17T22:29:08.071Z,4.43
2022-11-17T22:31:35.318Z,2.95
2022-11-17T22:34:02.644Z,3.90
2022-11-17T22:36:30.026Z,2.65
2022-11-17T22:38:57.293Z,2.35
2022-11-17T22:41:24.958Z,3.15
2022-11-17T22:43:54.125Z,3.55
2022-11-17T22:46:23.861Z,2.10
2022-11-17T22:48:51.180Z,4.82
2022-11-17T22:51:37.490Z,3.28
2022-11-17T22:54:06.391Z,4.22
2022-11-17T22:56:33.872Z,2.20
2022-11-17T22:59:01.699Z,2.13
2022-11-17T23:01:28.946Z,4.03
2022-11-17T23:03:56.647Z,2.45
2022-11-17T23:06:24.319Z,2.45
2022-11-17T23:08:51.603Z,2.15
2022-11-17T23:11:36.550Z,2.83
2022-11-17T23:14:06.805Z,2.47
2022-11-17T23:16:34.179Z,3.10
2022-11-17T23:19:01.706Z,2.60
2022-11-17T23:21:29.284Z,2.63
2022-11-17T23:23:56.589Z,2.38
2022-11-17T23:26:23.880Z,2.35
2022-11-17T23:28:51.198Z,1.65
2022-11-17T23:31:18.861Z,1.77
2022-11-17T23:33:47.667Z,2.13
2022-11-17T23:36:17.583Z,1.60
2022-11-17T23:38:45.007Z,2.65
2022-11-17T23:41:14.242Z,2.15
2022-11-17T23:43:41.547Z,1.65
2022-11-17T23:46:14.711Z,2.45
2022-11-17T23:48:43.190Z,1.98
2022-11-17T23:51:13.544Z,2.05
2022-11-17T23:53:41.342Z,1.85
2022-11-17T23:56:09.593Z,1.40
2022-11-17T23:58:37.651Z,2.00
